sensor_id;sensor_type;location;lat;lon;timestamp;P1;durP1;ratioP1;P2;durP2;ratioP2
21591;SDS011;10958;50.892;3.992;2024-01-06T00:01:22;5.03;;;2.20;;
21591;SDS011;10958;50.892;3.992;2024-01-06T00:03:48;7.57;;;2.33;;
21591;SDS011;10958;50.892;3.992;2024-01-06T00:06:14;6.22;;;1.85;;
21591;SDS011;10958;50.892;3.992;2024-01-06T00:08:39;6.93;;;1.98;;
21591;SDS011;10958;50.892;3.992;2024-01-06T00:11:05;8.73;;;2.47;;
21591;SDS011;10958;50.892;3.992;2024-01-06T00:13:31;9.10;;;2.40;;
21591;SDS011;10958;50.892;3.992;2024-01-06T00:15:56;5.40;;;2.45;;
21591;SDS011;10958;50.892;3.992;2024-01-06T00:18:22;10.20;;;2.88;;
21591;SDS011;10958;50.892;3.992;2024-01-06T00:20:48;8.75;;;2.65;;
21591;SDS011;10958;50.892;3.992;2024-01-06T00:23:14;13.52;;;3.00;;
21591;SDS011;10958;50.892;3.992;2024-01-06T00:25:39;8.35;;;2.67;;
21591;SDS011;10958;50.892;3.992;2024-01-06T00:28:05;5.22;;;2.35;;
21591;SDS011;10958;50.892;3.992;2024-01-06T00:30:31;7.18;;;2.42;;
21591;SDS011;10958;50.892;3.992;2024-01-06T00:32:58;11.13;;;2.90;;
21591;SDS011;10958;50.892;3.992;2024-01-06T00:35:24;14.52;;;3.80;;
21591;SDS011;10958;50.892;3.992;2024-01-06T00:37:49;10.57;;;2.35;;
21591;SDS011;10958;50.892;3.992;2024-01-06T00:40:15;11.38;;;2.45;;
21591;SDS011;10958;50.892;3.992;2024-01-06T00:42:41;9.00;;;1.80;;
21591;SDS011;10958;50.892;3.992;2024-01-06T00:45:07;10.80;;;1.98;;
21591;SDS011;10958;50.892;3.992;2024-01-06T00:47:33;7.85;;;1.90;;
21591;SDS011;10958;50.892;3.992;2024-01-06T00:49:58;9.13;;;1.73;;
21591;SDS011;10958;50.892;3.992;2024-01-06T00:52:24;8.13;;;1.67;;
21591;SDS011;10958;50.892;3.992;2024-01-06T00:54:51;7.28;;;2.10;;
21591;SDS011;10958;50.892;3.992;2024-01-06T00:57:17;12.43;;;1.95;;
21591;SDS011;10958;50.892;3.992;2024-01-06T00:59:49;6.45;;;2.13;;
21591;SDS011;10958;50.892;3.992;2024-01-06T01:02:14;6.95;;;1.65;;
21591;SDS011;10958;50.892;3.992;2024-01-06T01:04:40;9.27;;;2.25;;
21591;SDS011;10958;50.892;3.992;2024-01-06T01:07:06;5.78;;;1.70;;
21591;SDS011;10958;50.892;3.992;2024-01-06T01:09:34;6.80;;;1.65;;
21591;SDS011;10958;50.892;3.992;2024-01-06T01:12:00;6.35;;;1.50;;
21591;SDS011;10958;50.892;3.992;2024-01-06T01:14:26;6.25;;;2.03;;
21591;SDS011;10958;50.892;3.992;2024-01-06T01:16:51;6.63;;;1.48;;
21591;SDS011;10958;50.892;3.992;2024-01-06T01:19:19;6.22;;;1.80;;
21591;SDS011;10958;50.892;3.992;2024-01-06T01:21:45;7.68;;;1.58;;
21591;SDS011;10958;50.892;3.992;2024-01-06T01:24:15;6.22;;;1.50;;
21591;SDS011;10958;50.892;3.992;2024-01-06T01:26:41;10.70;;;1.85;;
21591;SDS011;10958;50.892;3.992;2024-01-06T01:29:06;7.57;;;1.70;;
21591;SDS011;10958;50.892;3.992;2024-01-06T01:31:34;11.13;;;1.75;;
21591;SDS011;10958;50.892;3.992;2024-01-06T01:34:00;5.63;;;1.77;;
21591;SDS011;10958;50.892;3.992;2024-01-06T01:36:26;6.70;;;1.48;;
21591;SDS011;10958;50.892;3.992;2024-01-06T01:38:54;8.18;;;1.77;;
21591;SDS011;10958;50.892;3.992;2024-01-06T01:41:22;9.95;;;2.00;;
21591;SDS011;10958;50.892;3.992;2024-01-06T01:43:47;11.88;;;1.83;;
21591;SDS011;10958;50.892;3.992;2024-01-06T01:46:13;7.00;;;1.50;;
21591;SDS011;10958;50.892;3.992;2024-01-06T01:48:39;7.68;;;1.70;;
21591;SDS011;10958;50.892;3.992;2024-01-06T01:51:07;12.23;;;1.77;;
21591;SDS011;10958;50.892;3.992;2024-01-06T01:53:34;5.13;;;1.90;;
21591;SDS011;10958;50.892;3.992;2024-01-06T01:56:00;7.65;;;1.67;;
21591;SDS011;10958;50.892;3.992;2024-01-06T01:58:26;7.70;;;1.58;;
21591;SDS011;10958;50.892;3.992;2024-01-06T02:00:51;11.32;;;1.90;;
21591;SDS011;10958;50.892;3.992;2024-01-06T02:03:18;7.95;;;1.90;;
21591;SDS011;10958;50.892;3.992;2024-01-06T02:05:44;3.65;;;1.80;;
21591;SDS011;10958;50.892;3.992;2024-01-06T02:08:10;5.45;;;1.48;;
21591;SDS011;10958;50.892;3.992;2024-01-06T02:10:35;8.13;;;1.85;;
21591;SDS011;10958;50.892;3.992;2024-01-06T02:13:10;7.00;;;2.35;;
21591;SDS011;10958;50.892;3.992;2024-01-06T02:15:36;5.15;;;1.90;;
21591;SDS011;10958;50.892;3.992;2024-01-06T02:18:02;6.18;;;2.10;;
21591;SDS011;10958;50.892;3.992;2024-01-06T02:20:29;5.85;;;1.70;;
21591;SDS011;10958;50.892;3.992;2024-01-06T02:22:56;4.57;;;2.22;;
21591;SDS011;10958;50.892;3.992;2024-01-06T02:25:23;7.68;;;2.20;;
21591;SDS011;10958;50.892;3.992;2024-01-06T02:27:51;5.22;;;2.10;;
21591;SDS011;10958;50.892;3.992;2024-01-06T02:30:17;5.25;;;2.20;;
21591;SDS011;10958;50.892;3.992;2024-01-06T02:32:45;7.00;;;3.13;;
21591;SDS011;10958;50.892;3.992;2024-01-06T02:35:11;6.88;;;2.78;;
21591;SDS011;10958;50.892;3.992;2024-01-06T02:37:36;7.28;;;2.50;;
21591;SDS011;10958;50.892;3.992;2024-01-06T02:40:02;6.65;;;2.50;;
21591;SDS011;10958;50.892;3.992;2024-01-06T02:42:28;8.48;;;2.10;;
21591;SDS011;10958;50.892;3.992;2024-01-06T02:44:54;5.45;;;2.40;;
21591;SDS011;10958;50.892;3.992;2024-01-06T02:47:20;3.25;;;2.05;;
21591;SDS011;10958;50.892;3.992;2024-01-06T02:49:45;2.88;;;2.00;;
21591;SDS011;10958;50.892;3.992;2024-01-06T02:52:11;5.78;;;2.30;;
21591;SDS011;10958;50.892;3.992;2024-01-06T02:54:37;4.15;;;2.10;;
21591;SDS011;10958;50.892;3.992;2024-01-06T02:57:02;7.60;;;2.25;;
21591;SDS011;10958;50.892;3.992;2024-01-06T02:59:28;4.80;;;2.20;;
21591;SDS011;10958;50.892;3.992;2024-01-06T03:01:54;7.88;;;2.35;;
21591;SDS011;10958;50.892;3.992;2024-01-06T03:04:22;5.95;;;1.80;;
21591;SDS011;10958;50.892;3.992;2024-01-06T03:06:50;3.97;;;2.28;;
21591;SDS011;10958;50.892;3.992;2024-01-06T03:09:18;4.43;;;1.80;;
21591;SDS011;10958;50.892;3.992;2024-01-06T03:11:49;5.03;;;1.70;;
21591;SDS011;10958;50.892;3.992;2024-01-06T03:14:15;4.20;;;1.60;;
21591;SDS011;10958;50.892;3.992;2024-01-06T03:16:41;4.35;;;1.70;;
21591;SDS011;10958;50.892;3.992;2024-01-06T03:19:06;4.47;;;1.70;;
21591;SDS011;10958;50.892;3.992;2024-01-06T03:21:34;4.72;;;1.90;;
21591;SDS011;10958;50.892;3.992;2024-01-06T03:24:02;4.78;;;1.83;;
21591;SDS011;10958;50.892;3.992;2024-01-06T03:26:29;4.07;;;1.70;;
21591;SDS011;10958;50.892;3.992;2024-01-06T03:28:57;3.28;;;1.88;;
21591;SDS011;10958;50.892;3.992;2024-01-06T03:31:24;3.75;;;1.63;;
21591;SDS011;10958;50.892;3.992;2024-01-06T03:33:50;2.90;;;1.92;;
21591;SDS011;10958;50.892;3.992;2024-01-06T03:36:21;3.10;;;1.73;;
21591;SDS011;10958;50.892;3.992;2024-01-06T03:38:46;4.45;;;2.05;;
21591;SDS011;10958;50.892;3.992;2024-01-06T03:41:12;3.83;;;1.88;;
21591;SDS011;10958;50.892;3.992;2024-01-06T03:43:38;6.00;;;1.90;;
21591;SDS011;10958;50.892;3.992;2024-01-06T03:46:04;3.50;;;1.83;;
21591;SDS011;10958;50.892;3.992;2024-01-06T03:48:30;4.97;;;2.10;;
21591;SDS011;10958;50.892;3.992;2024-01-06T03:50:57;4.70;;;2.38;;
21591;SDS011;10958;50.892;3.992;2024-01-06T03:53:24;4.88;;;2.28;;
21591;SDS011;10958;50.892;3.992;2024-01-06T03:55:49;3.03;;;2.22;;
21591;SDS011;10958;50.892;3.992;2024-01-06T03:58:17;6.30;;;2.72;;
21591;SDS011;10958;50.892;3.992;2024-01-06T04:00:44;3.95;;;2.88;;
21591;SDS011;10958;50.892;3.992;2024-01-06T04:03:12;7.15;;;2.35;;
21591;SDS011;10958;50.892;3.992;2024-01-06T04:05:38;5.22;;;3.13;;
21591;SDS011;10958;50.892;3.992;2024-01-06T04:08:04;3.63;;;2.83;;
21591;SDS011;10958;50.892;3.992;2024-01-06T04:10:29;4.78;;;2.67;;
21591;SDS011;10958;50.892;3.992;2024-01-06T04:12:55;4.35;;;2.92;;
21591;SDS011;10958;50.892;3.992;2024-01-06T04:15:21;6.03;;;3.55;;
21591;SDS011;10958;50.892;3.992;2024-01-06T04:17:48;6.50;;;2.92;;
21591;SDS011;10958;50.892;3.992;2024-01-06T04:20:14;6.05;;;3.13;;
21591;SDS011;10958;50.892;3.992;2024-01-06T04:22:40;7.75;;;3.40;;
21591;SDS011;10958;50.892;3.992;2024-01-06T04:25:05;6.40;;;3.08;;
21591;SDS011;10958;50.892;3.992;2024-01-06T04:27:31;5.18;;;3.17;;
21591;SDS011;10958;50.892;3.992;2024-01-06T04:30:01;5.90;;;3.15;;
21591;SDS011;10958;50.892;3.992;2024-01-06T04:32:29;7.50;;;3.50;;
21591;SDS011;10958;50.892;3.992;2024-01-06T04:34:55;7.78;;;3.58;;
21591;SDS011;10958;50.892;3.992;2024-01-06T04:37:22;6.70;;;3.65;;
21591;SDS011;10958;50.892;3.992;2024-01-06T04:39:47;8.13;;;3.47;;
21591;SDS011;10958;50.892;3.992;2024-01-06T04:42:14;7.38;;;4.45;;
21591;SDS011;10958;50.892;3.992;2024-01-06T04:44:39;4.97;;;3.70;;
21591;SDS011;10958;50.892;3.992;2024-01-06T04:47:05;5.28;;;3.90;;
21591;SDS011;10958;50.892;3.992;2024-01-06T04:49:31;6.32;;;3.70;;
21591;SDS011;10958;50.892;3.992;2024-01-06T04:51:56;4.88;;;3.55;;
21591;SDS011;10958;50.892;3.992;2024-01-06T04:54:22;6.15;;;3.35;;
21591;SDS011;10958;50.892;3.992;2024-01-06T04:56:50;6.10;;;3.80;;
21591;SDS011;10958;50.892;3.992;2024-01-06T04:59:18;8.13;;;3.75;;
21591;SDS011;10958;50.892;3.992;2024-01-06T05:01:44;7.07;;;3.78;;
21591;SDS011;10958;50.892;3.992;2024-01-06T05:04:10;4.80;;;3.72;;
21591;SDS011;10958;50.892;3.992;2024-01-06T05:06:35;5.03;;;3.75;;
21591;SDS011;10958;50.892;3.992;2024-01-06T05:09:03;7.30;;;3.60;;
21591;SDS011;10958;50.892;3.992;2024-01-06T05:11:31;7.57;;;3.78;;
21591;SDS011;10958;50.892;3.992;2024-01-06T05:13:57;5.43;;;3.67;;
21591;SDS011;10958;50.892;3.992;2024-01-06T05:16:25;5.47;;;3.97;;
21591;SDS011;10958;50.892;3.992;2024-01-06T05:18:52;4.82;;;4.00;;
21591;SDS011;10958;50.892;3.992;2024-01-06T05:21:20;7.63;;;4.07;;
21591;SDS011;10958;50.892;3.992;2024-01-06T05:23:46;8.82;;;4.30;;
21591;SDS011;10958;50.892;3.992;2024-01-06T05:26:12;8.20;;;4.30;;
21591;SDS011;10958;50.892;3.992;2024-01-06T05:28:39;8.82;;;4.90;;
21591;SDS011;10958;50.892;3.992;2024-01-06T05:31:07;10.57;;;4.23;;
21591;SDS011;10958;50.892;3.992;2024-01-06T05:33:34;8.30;;;4.30;;
21591;SDS011;10958;50.892;3.992;2024-01-06T05:36:00;5.97;;;4.20;;
21591;SDS011;10958;50.892;3.992;2024-01-06T05:38:26;7.85;;;4.07;;
21591;SDS011;10958;50.892;3.992;2024-01-06T05:40:53;8.23;;;4.53;;
21591;SDS011;10958;50.892;3.992;2024-01-06T05:43:19;9.65;;;5.07;;
21591;SDS011;10958;50.892;3.992;2024-01-06T05:45:47;8.90;;;3.83;;
21591;SDS011;10958;50.892;3.992;2024-01-06T05:48:13;8.18;;;4.72;;
21591;SDS011;10958;50.892;3.992;2024-01-06T05:50:39;7.55;;;4.80;;
21591;SDS011;10958;50.892;3.992;2024-01-06T05:53:05;9.25;;;4.68;;
21591;SDS011;10958;50.892;3.992;2024-01-06T05:55:35;10.32;;;4.85;;
21591;SDS011;10958;50.892;3.992;2024-01-06T05:58:03;8.00;;;5.00;;
21591;SDS011;10958;50.892;3.992;2024-01-06T06:00:29;7.85;;;4.65;;
21591;SDS011;10958;50.892;3.992;2024-01-06T06:02:58;5.78;;;3.50;;
21591;SDS011;10958;50.892;3.992;2024-01-06T06:05:23;6.85;;;4.82;;
21591;SDS011;10958;50.892;3.992;2024-01-06T06:07:51;12.70;;;5.55;;
21591;SDS011;10958;50.892;3.992;2024-01-06T06:10:20;12.23;;;4.78;;
21591;SDS011;10958;50.892;3.992;2024-01-06T06:12:45;10.83;;;4.90;;
21591;SDS011;10958;50.892;3.992;2024-01-06T06:15:11;10.43;;;5.38;;
21591;SDS011;10958;50.892;3.992;2024-01-06T06:17:37;9.05;;;4.55;;
21591;SDS011;10958;50.892;3.992;2024-01-06T06:20:04;10.13;;;4.97;;
21591;SDS011;10958;50.892;3.992;2024-01-06T06:22:31;9.57;;;4.78;;
21591;SDS011;10958;50.892;3.992;2024-01-06T06:24:57;13.23;;;5.25;;
21591;SDS011;10958;50.892;3.992;2024-01-06T06:27:26;11.02;;;5.38;;
21591;SDS011;10958;50.892;3.992;2024-01-06T06:29:53;8.52;;;4.65;;
21591;SDS011;10958;50.892;3.992;2024-01-06T06:32:19;13.43;;;5.00;;
21591;SDS011;10958;50.892;3.992;2024-01-06T06:34:45;9.70;;;4.65;;
21591;SDS011;10958;50.892;3.992;2024-01-06T06:37:11;11.10;;;5.15;;
21591;SDS011;10958;50.892;3.992;2024-01-06T06:39:36;13.10;;;4.60;;
21591;SDS011;10958;50.892;3.992;2024-01-06T06:42:02;11.18;;;5.22;;
21591;SDS011;10958;50.892;3.992;2024-01-06T06:44:31;11.07;;;4.40;;
21591;SDS011;10958;50.892;3.992;2024-01-06T06:46:57;9.80;;;4.18;;
21591;SDS011;10958;50.892;3.992;2024-01-06T06:49:22;7.82;;;4.05;;
21591;SDS011;10958;50.892;3.992;2024-01-06T06:51:48;9.32;;;4.07;;
21591;SDS011;10958;50.892;3.992;2024-01-06T06:54:15;12.40;;;4.18;;
21591;SDS011;10958;50.892;3.992;2024-01-06T06:56:44;8.60;;;4.43;;
21591;SDS011;10958;50.892;3.992;2024-01-06T06:59:10;8.60;;;4.50;;
21591;SDS011;10958;50.892;3.992;2024-01-06T07:01:38;8.70;;;4.47;;
21591;SDS011;10958;50.892;3.992;2024-01-06T07:04:04;9.25;;;3.42;;
21591;SDS011;10958;50.892;3.992;2024-01-06T07:06:30;8.25;;;4.43;;
21591;SDS011;10958;50.892;3.992;2024-01-06T07:08:56;10.05;;;5.70;;
21591;SDS011;10958;50.892;3.992;2024-01-06T07:11:22;11.50;;;5.60;;
21591;SDS011;10958;50.892;3.992;2024-01-06T07:13:47;11.52;;;4.95;;
21591;SDS011;10958;50.892;3.992;2024-01-06T07:16:13;9.27;;;5.05;;
21591;SDS011;10958;50.892;3.992;2024-01-06T07:18:39;12.13;;;5.10;;
21591;SDS011;10958;50.892;3.992;2024-01-06T07:21:07;13.52;;;4.68;;
21591;SDS011;10958;50.892;3.992;2024-01-06T07:23:32;10.52;;;5.60;;
21591;SDS011;10958;50.892;3.992;2024-01-06T07:25:58;9.75;;;5.18;;
21591;SDS011;10958;50.892;3.992;2024-01-06T07:28:26;13.32;;;5.60;;
21591;SDS011;10958;50.892;3.992;2024-01-06T07:30:54;9.60;;;6.00;;
21591;SDS011;10958;50.892;3.992;2024-01-06T07:33:20;10.05;;;6.10;;
21591;SDS011;10958;50.892;3.992;2024-01-06T07:35:46;13.50;;;6.75;;
21591;SDS011;10958;50.892;3.992;2024-01-06T07:38:12;15.40;;;6.85;;
21591;SDS011;10958;50.892;3.992;2024-01-06T07:40:40;11.30;;;7.03;;
21591;SDS011;10958;50.892;3.992;2024-01-06T07:43:07;10.68;;;7.05;;
21591;SDS011;10958;50.892;3.992;2024-01-06T07:45:32;10.90;;;6.32;;
21591;SDS011;10958;50.892;3.992;2024-01-06T07:47:58;13.27;;;6.90;;
21591;SDS011;10958;50.892;3.992;2024-01-06T07:50:24;13.65;;;7.03;;
21591;SDS011;10958;50.892;3.992;2024-01-06T07:52:50;11.52;;;7.25;;
21591;SDS011;10958;50.892;3.992;2024-01-06T07:55:16;12.60;;;6.55;;
21591;SDS011;10958;50.892;3.992;2024-01-06T07:57:43;16.23;;;7.15;;
21591;SDS011;10958;50.892;3.992;2024-01-06T08:00:09;12.55;;;7.50;;
21591;SDS011;10958;50.892;3.992;2024-01-06T08:02:35;13.65;;;7.60;;
21591;SDS011;10958;50.892;3.992;2024-01-06T08:05:01;17.15;;;8.05;;
21591;SDS011;10958;50.892;3.992;2024-01-06T08:07:27;15.25;;;8.10;;
21591;SDS011;10958;50.892;3.992;2024-01-06T08:09:53;10.73;;;7.10;;
21591;SDS011;10958;50.892;3.992;2024-01-06T08:12:18;16.17;;;8.25;;
21591;SDS011;10958;50.892;3.992;2024-01-06T08:14:44;11.05;;;7.78;;
21591;SDS011;10958;50.892;3.992;2024-01-06T08:17:10;13.13;;;8.02;;
21591;SDS011;10958;50.892;3.992;2024-01-06T08:19:35;12.40;;;7.22;;
21591;SDS011;10958;50.892;3.992;2024-01-06T08:22:01;12.93;;;7.88;;
21591;SDS011;10958;50.892;3.992;2024-01-06T08:24:27;13.02;;;7.50;;
21591;SDS011;10958;50.892;3.992;2024-01-06T08:26:53;16.65;;;7.78;;
21591;SDS011;10958;50.892;3.992;2024-01-06T08:29:18;13.70;;;6.97;;
21591;SDS011;10958;50.892;3.992;2024-01-06T08:31:45;16.05;;;8.02;;
21591;SDS011;10958;50.892;3.992;2024-01-06T08:34:10;14.38;;;7.38;;
21591;SDS011;10958;50.892;3.992;2024-01-06T08:36:38;15.82;;;7.47;;
21591;SDS011;10958;50.892;3.992;2024-01-06T08:39:04;13.15;;;7.47;;
21591;SDS011;10958;50.892;3.992;2024-01-06T08:41:30;9.93;;;6.85;;
21591;SDS011;10958;50.892;3.992;2024-01-06T08:43:56;12.88;;;7.63;;
21591;SDS011;10958;50.892;3.992;2024-01-06T08:46:21;16.35;;;7.55;;
21591;SDS011;10958;50.892;3.992;2024-01-06T08:48:47;14.32;;;7.60;;
21591;SDS011;10958;50.892;3.992;2024-01-06T08:51:13;13.07;;;7.80;;
21591;SDS011;10958;50.892;3.992;2024-01-06T08:53:39;11.88;;;7.60;;
21591;SDS011;10958;50.892;3.992;2024-01-06T08:56:07;12.30;;;7.28;;
21591;SDS011;10958;50.892;3.992;2024-01-06T09:01:02;13.18;;;6.90;;
21591;SDS011;10958;50.892;3.992;2024-01-06T09:03:30;13.38;;;7.30;;
21591;SDS011;10958;50.892;3.992;2024-01-06T09:05:56;12.15;;;6.82;;
21591;SDS011;10958;50.892;3.992;2024-01-06T09:08:24;13.40;;;6.38;;
21591;SDS011;10958;50.892;3.992;2024-01-06T09:10:50;11.43;;;6.47;;
21591;SDS011;10958;50.892;3.992;2024-01-06T09:13:22;9.82;;;6.40;;
21591;SDS011;10958;50.892;3.992;2024-01-06T09:15:49;9.52;;;6.45;;
21591;SDS011;10958;50.892;3.992;2024-01-06T09:18:17;12.40;;;7.32;;
21591;SDS011;10958;50.892;3.992;2024-01-06T09:20:43;12.63;;;6.35;;
21591;SDS011;10958;50.892;3.992;2024-01-06T09:23:09;12.00;;;6.95;;
21591;SDS011;10958;50.892;3.992;2024-01-06T09:25:35;14.52;;;7.97;;
21591;SDS011;10958;50.892;3.992;2024-01-06T09:28:01;10.35;;;7.25;;
21591;SDS011;10958;50.892;3.992;2024-01-06T09:30:26;10.38;;;6.28;;
21591;SDS011;10958;50.892;3.992;2024-01-06T09:32:52;13.88;;;7.22;;
21591;SDS011;10958;50.892;3.992;2024-01-06T09:35:18;9.73;;;6.63;;
21591;SDS011;10958;50.892;3.992;2024-01-06T09:37:44;11.13;;;6.65;;
21591;SDS011;10958;50.892;3.992;2024-01-06T09:40:11;10.52;;;7.30;;
21591;SDS011;10958;50.892;3.992;2024-01-06T09:42:40;10.40;;;6.50;;
21591;SDS011;10958;50.892;3.992;2024-01-06T09:45:08;9.32;;;6.25;;
21591;SDS011;10958;50.892;3.992;2024-01-06T09:47:34;9.98;;;6.80;;
21591;SDS011;10958;50.892;3.992;2024-01-06T09:50:01;7.50;;;5.30;;
21591;SDS011;10958;50.892;3.992;2024-01-06T09:52:29;5.45;;;4.55;;
21591;SDS011;10958;50.892;3.992;2024-01-06T09:54:58;6.82;;;5.38;;
21591;SDS011;10958;50.892;3.992;2024-01-06T09:57:29;11.23;;;5.40;;
21591;SDS011;10958;50.892;3.992;2024-01-06T09:59:55;4.75;;;3.42;;
21591;SDS011;10958;50.892;3.992;2024-01-06T10:02:21;7.50;;;4.95;;
21591;SDS011;10958;50.892;3.992;2024-01-06T10:04:48;10.43;;;4.53;;
21591;SDS011;10958;50.892;3.992;2024-01-06T10:07:13;8.73;;;4.32;;
21591;SDS011;10958;50.892;3.992;2024-01-06T10:09:42;7.10;;;4.47;;
21591;SDS011;10958;50.892;3.992;2024-01-06T10:12:12;5.90;;;3.80;;
21591;SDS011;10958;50.892;3.992;2024-01-06T10:14:40;6.10;;;3.75;;
21591;SDS011;10958;50.892;3.992;2024-01-06T10:17:08;6.88;;;4.25;;
21591;SDS011;10958;50.892;3.992;2024-01-06T10:19:34;8.25;;;4.40;;
21591;SDS011;10958;50.892;3.992;2024-01-06T10:22:02;8.82;;;4.65;;
21591;SDS011;10958;50.892;3.992;2024-01-06T10:24:28;8.55;;;4.40;;
21591;SDS011;10958;50.892;3.992;2024-01-06T10:26:54;7.18;;;4.53;;
21591;SDS011;10958;50.892;3.992;2024-01-06T10:29:20;7.20;;;4.45;;
21591;SDS011;10958;50.892;3.992;2024-01-06T10:31:46;6.38;;;4.03;;
21591;SDS011;10958;50.892;3.992;2024-01-06T10:34:11;8.25;;;5.00;;
21591;SDS011;10958;50.892;3.992;2024-01-06T10:36:39;8.15;;;5.03;;
21591;SDS011;10958;50.892;3.992;2024-01-06T10:39:04;8.23;;;4.88;;
21591;SDS011;10958;50.892;3.992;2024-01-06T10:41:32;7.90;;;5.15;;
21591;SDS011;10958;50.892;3.992;2024-01-06T10:44:01;8.52;;;5.00;;
21591;SDS011;10958;50.892;3.992;2024-01-06T10:46:33;7.53;;;5.47;;
21591;SDS011;10958;50.892;3.992;2024-01-06T10:49:00;9.55;;;5.57;;
21591;SDS011;10958;50.892;3.992;2024-01-06T10:51:27;9.57;;;5.70;;
21591;SDS011;10958;50.892;3.992;2024-01-06T10:53:58;8.57;;;6.10;;
21591;SDS011;10958;50.892;3.992;2024-01-06T10:56:26;9.20;;;5.95;;
21591;SDS011;10958;50.892;3.992;2024-01-06T10:58:53;8.90;;;6.10;;
21591;SDS011;10958;50.892;3.992;2024-01-06T11:03:38;12.13;;;6.25;;
21591;SDS011;10958;50.892;3.992;2024-01-06T11:06:07;13.15;;;6.65;;
21591;SDS011;10958;50.892;3.992;2024-01-06T11:08:43;11.38;;;6.53;;
21591;SDS011;10958;50.892;3.992;2024-01-06T11:11:18;11.20;;;6.97;;
21591;SDS011;10958;50.892;3.992;2024-01-06T11:13:45;10.70;;;6.85;;
21591;SDS011;10958;50.892;3.992;2024-01-06T11:16:33;10.35;;;7.35;;
21591;SDS011;10958;50.892;3.992;2024-01-06T11:21:27;9.88;;;6.68;;
21591;SDS011;10958;50.892;3.992;2024-01-06T11:26:32;14.15;;;7.95;;
21591;SDS011;10958;50.892;3.992;2024-01-06T11:28:58;15.02;;;8.20;;
21591;SDS011;10958;50.892;3.992;2024-01-06T11:31:32;13.88;;;7.00;;
21591;SDS011;10958;50.892;3.992;2024-01-06T11:34:11;12.85;;;7.63;;
21591;SDS011;10958;50.892;3.992;2024-01-06T11:36:44;14.32;;;7.00;;
21591;SDS011;10958;50.892;3.992;2024-01-06T11:39:33;16.63;;;7.22;;
21591;SDS011;10958;50.892;3.992;2024-01-06T11:42:09;10.75;;;7.20;;
21591;SDS011;10958;50.892;3.992;2024-01-06T11:44:39;10.73;;;6.55;;
21591;SDS011;10958;50.892;3.992;2024-01-06T11:47:08;10.40;;;7.53;;
21591;SDS011;10958;50.892;3.992;2024-01-06T11:49:37;10.25;;;6.75;;
21591;SDS011;10958;50.892;3.992;2024-01-06T11:52:03;10.25;;;7.25;;
21591;SDS011;10958;50.892;3.992;2024-01-06T11:54:30;10.90;;;6.85;;
21591;SDS011;10958;50.892;3.992;2024-01-06T11:56:56;10.68;;;7.38;;
21591;SDS011;10958;50.892;3.992;2024-01-06T11:59:22;9.05;;;6.88;;
21591;SDS011;10958;50.892;3.992;2024-01-06T12:01:48;10.45;;;7.45;;
21591;SDS011;10958;50.892;3.992;2024-01-06T12:04:17;9.80;;;7.30;;
21591;SDS011;10958;50.892;3.992;2024-01-06T12:06:43;10.70;;;7.13;;
21591;SDS011;10958;50.892;3.992;2024-01-06T12:09:11;10.98;;;7.28;;
21591;SDS011;10958;50.892;3.992;2024-01-06T12:11:41;10.82;;;7.13;;
21591;SDS011;10958;50.892;3.992;2024-01-06T12:14:10;9.85;;;6.60;;
21591;SDS011;10958;50.892;3.992;2024-01-06T12:16:40;10.95;;;7.03;;
21591;SDS011;10958;50.892;3.992;2024-01-06T12:19:08;8.68;;;5.90;;
21591;SDS011;10958;50.892;3.992;2024-01-06T12:21:34;8.48;;;6.22;;
21591;SDS011;10958;50.892;3.992;2024-01-06T12:24:15;10.05;;;6.05;;
21591;SDS011;10958;50.892;3.992;2024-01-06T12:26:44;12.70;;;5.95;;
21591;SDS011;10958;50.892;3.992;2024-01-06T12:29:10;8.13;;;5.90;;
21591;SDS011;10958;50.892;3.992;2024-01-06T12:31:40;8.85;;;6.03;;
21591;SDS011;10958;50.892;3.992;2024-01-06T12:34:06;12.70;;;6.35;;
21591;SDS011;10958;50.892;3.992;2024-01-06T12:36:37;7.43;;;5.53;;
21591;SDS011;10958;50.892;3.992;2024-01-06T12:39:04;9.20;;;5.32;;
21591;SDS011;10958;50.892;3.992;2024-01-06T12:41:30;9.30;;;5.20;;
21591;SDS011;10958;50.892;3.992;2024-01-06T12:44:04;8.85;;;5.38;;
21591;SDS011;10958;50.892;3.992;2024-01-06T12:46:32;8.02;;;4.78;;
21591;SDS011;10958;50.892;3.992;2024-01-06T12:48:58;10.65;;;5.05;;
21591;SDS011;10958;50.892;3.992;2024-01-06T12:51:24;11.25;;;5.22;;
21591;SDS011;10958;50.892;3.992;2024-01-06T12:53:54;8.02;;;4.80;;
21591;SDS011;10958;50.892;3.992;2024-01-06T12:56:23;7.05;;;4.90;;
21591;SDS011;10958;50.892;3.992;2024-01-06T12:58:50;8.90;;;5.07;;
21591;SDS011;10958;50.892;3.992;2024-01-06T13:01:15;7.35;;;4.53;;
21591;SDS011;10958;50.892;3.992;2024-01-06T13:03:43;8.35;;;4.50;;
21591;SDS011;10958;50.892;3.992;2024-01-06T13:06:09;6.43;;;4.20;;
21591;SDS011;10958;50.892;3.992;2024-01-06T13:08:35;8.25;;;4.40;;
21591;SDS011;10958;50.892;3.992;2024-01-06T13:11:01;6.25;;;3.78;;
21591;SDS011;10958;50.892;3.992;2024-01-06T13:13:28;7.35;;;4.28;;
21591;SDS011;10958;50.892;3.992;2024-01-06T13:15:56;6.85;;;4.30;;
21591;SDS011;10958;50.892;3.992;2024-01-06T13:18:26;6.50;;;4.30;;
21591;SDS011;10958;50.892;3.992;2024-01-06T13:20:53;8.30;;;3.70;;
21591;SDS011;10958;50.892;3.992;2024-01-06T13:23:19;6.15;;;3.58;;
21591;SDS011;10958;50.892;3.992;2024-01-06T13:25:47;6.60;;;3.20;;
21591;SDS011;10958;50.892;3.992;2024-01-06T13:28:13;5.18;;;3.25;;
21591;SDS011;10958;50.892;3.992;2024-01-06T13:30:39;4.57;;;2.88;;
21591;SDS011;10958;50.892;3.992;2024-01-06T13:33:06;3.10;;;2.65;;
21591;SDS011;10958;50.892;3.992;2024-01-06T13:35:32;5.55;;;3.17;;
21591;SDS011;10958;50.892;3.992;2024-01-06T13:37:58;5.53;;;2.78;;
21591;SDS011;10958;50.892;3.992;2024-01-06T13:40:31;6.03;;;3.20;;
21591;SDS011;10958;50.892;3.992;2024-01-06T13:42:57;6.23;;;2.83;;
21591;SDS011;10958;50.892;3.992;2024-01-06T13:45:25;7.57;;;2.87;;
21591;SDS011;10958;50.892;3.992;2024-01-06T13:47:52;4.35;;;2.95;;
21591;SDS011;10958;50.892;3.992;2024-01-06T13:50:18;8.50;;;2.80;;
21591;SDS011;10958;50.892;3.992;2024-01-06T13:52:44;5.32;;;2.60;;
21591;SDS011;10958;50.892;3.992;2024-01-06T13:55:10;4.70;;;2.22;;
21591;SDS011;10958;50.892;3.992;2024-01-06T13:57:36;5.28;;;2.55;;
21591;SDS011;10958;50.892;3.992;2024-01-06T14:00:07;5.95;;;2.63;;
21591;SDS011;10958;50.892;3.992;2024-01-06T14:02:34;5.15;;;2.47;;
21591;SDS011;10958;50.892;3.992;2024-01-06T14:05:00;5.30;;;2.20;;
21591;SDS011;10958;50.892;3.992;2024-01-06T14:07:33;6.38;;;2.58;;
21591;SDS011;10958;50.892;3.992;2024-01-06T14:09:59;3.85;;;2.33;;
21591;SDS011;10958;50.892;3.992;2024-01-06T14:12:25;4.80;;;2.03;;
21591;SDS011;10958;50.892;3.992;2024-01-06T14:14:51;3.05;;;2.33;;
21591;SDS011;10958;50.892;3.992;2024-01-06T14:17:16;4.72;;;2.35;;
21591;SDS011;10958;50.892;3.992;2024-01-06T14:19:42;3.45;;;2.00;;
21591;SDS011;10958;50.892;3.992;2024-01-06T14:22:08;2.88;;;2.15;;
21591;SDS011;10958;50.892;3.992;2024-01-06T14:24:33;4.93;;;2.28;;
21591;SDS011;10958;50.892;3.992;2024-01-06T14:27:01;4.72;;;2.30;;
21591;SDS011;10958;50.892;3.992;2024-01-06T14:29:28;2.65;;;2.05;;
21591;SDS011;10958;50.892;3.992;2024-01-06T14:31:55;2.63;;;1.92;;
21591;SDS011;10958;50.892;3.992;2024-01-06T14:34:21;2.92;;;1.77;;
21591;SDS011;10958;50.892;3.992;2024-01-06T14:36:46;3.08;;;2.10;;
21591;SDS011;10958;50.892;3.992;2024-01-06T14:39:17;5.70;;;2.40;;
21591;SDS011;10958;50.892;3.992;2024-01-06T14:41:49;5.05;;;2.40;;
21591;SDS011;10958;50.892;3.992;2024-01-06T14:44:17;3.77;;;1.80;;
21591;SDS011;10958;50.892;3.992;2024-01-06T14:46:48;5.85;;;2.08;;
21591;SDS011;10958;50.892;3.992;2024-01-06T14:49:15;3.67;;;2.13;;
21591;SDS011;10958;50.892;3.992;2024-01-06T14:51:41;3.13;;;2.25;;